sensor_id;sensor_type;location;lat;lon;timestamp;temperature;humidity
58096;DHT22;43908;53.038;6.666;2022-07-05T00:02:18;12.60;99.90
58096;DHT22;43908;53.038;6.666;2022-07-05T00:04:44;12.60;99.90
58096;DHT22;43908;53.038;6.666;2022-07-05T00:07:09;12.60;99.90
58096;DHT22;43908;53.038;6.666;2022-07-05T00:12:10;12.50;99.90
58096;DHT22;43908;53.038;6.666;2022-07-05T00:14:38;12.50;99.90
58096;DHT22;43908;53.038;6.666;2022-07-05T00:17:05;12.50;99.90
58096;DHT22;43908;53.038;6.666;2022-07-05T00:19:31;12.40;99.90
58096;DHT22;43908;53.038;6.666;2022-07-05T00:21:57;12.40;99.90
58096;DHT22;43908;53.038;6.666;2022-07-05T00:24:23;12.40;99.90
58096;DHT22;43908;53.038;6.666;2022-07-05T00:26:49;12.40;99.90
58096;DHT22;43908;53.038;6.666;2022-07-05T00:29:14;12.40;99.90
58096;DHT22;43908;53.038;6.666;2022-07-05T00:31:40;12.30;99.90
58096;DHT22;43908;53.038;6.666;2022-07-05T00:34:06;12.30;99.90
58096;DHT22;43908;53.038;6.666;2022-07-05T00:36:31;12.30;99.90
58096;DHT22;43908;53.038;6.666;2022-07-05T00:38:57;12.30;99.90
58096;DHT22;43908;53.038;6.666;2022-07-05T00:41:22;12.30;99.90
58096;DHT22;43908;53.038;6.666;2022-07-05T00:43:56;12.30;99.90
58096;DHT22;43908;53.038;6.666;2022-07-05T00:46:22;12.40;99.90
58096;DHT22;43908;53.038;6.666;2022-07-05T00:48:48;12.30;99.90
58096;DHT22;43908;53.038;6.666;2022-07-05T00:51:14;12.30;99.90
58096;DHT22;43908;53.038;6.666;2022-07-05T00:53:40;12.30;99.90
58096;DHT22;43908;53.038;6.666;2022-07-05T00:56:06;12.30;99.90
58096;DHT22;43908;53.038;6.666;2022-07-05T00:58:32;12.30;99.90
58096;DHT22;43908;53.038;6.666;2022-07-05T01:00:59;12.30;99.90
58096;DHT22;43908;53.038;6.666;2022-07-05T01:03:27;12.30;99.90
58096;DHT22;43908;53.038;6.666;2022-07-05T01:05:54;12.30;99.90
58096;DHT22;43908;53.038;6.666;2022-07-05T01:08:21;12.30;99.90
58096;DHT22;43908;53.038;6.666;2022-07-05T01:10:48;12.20;99.90
58096;DHT22;43908;53.038;6.666;2022-07-05T01:13:14;12.20;99.90
58096;DHT22;43908;53.038;6.666;2022-07-05T01:15:40;12.20;99.90
58096;DHT22;43908;53.038;6.666;2022-07-05T01:18:07;12.20;99.90
58096;DHT22;43908;53.038;6.666;2022-07-05T01:20:34;12.10;99.90
58096;DHT22;43908;53.038;6.666;2022-07-05T01:23:01;12.10;99.90
58096;DHT22;43908;53.038;6.666;2022-07-05T01:25:29;12.10;99.90
58096;DHT22;43908;53.038;6.666;2022-07-05T01:27:56;12.10;99.90
58096;DHT22;43908;53.038;6.666;2022-07-05T01:30:23;12.00;99.90
58096;DHT22;43908;53.038;6.666;2022-07-05T01:32:49;12.00;99.90
58096;DHT22;43908;53.038;6.666;2022-07-05T01:35:15;12.00;99.90
58096;DHT22;43908;53.038;6.666;2022-07-05T01:37:46;12.00;99.90
58096;DHT22;43908;53.038;6.666;2022-07-05T01:40:12;11.90;99.90
58096;DHT22;43908;53.038;6.666;2022-07-05T01:42:38;11.90;99.90
58096;DHT22;43908;53.038;6.666;2022-07-05T01:45:04;11.90;99.90
58096;DHT22;43908;53.038;6.666;2022-07-05T01:47:32;11.80;99.90
58096;DHT22;43908;53.038;6.666;2022-07-05T01:50:02;11.90;99.90
58096;DHT22;43908;53.038;6.666;2022-07-05T01:52:30;11.80;99.90
58096;DHT22;43908;53.038;6.666;2022-07-05T01:54:58;11.80;99.90
58096;DHT22;43908;53.038;6.666;2022-07-05T01:57:24;11.80;99.90
58096;DHT22;43908;53.038;6.666;2022-07-05T01:59:49;11.80;99.90
58096;DHT22;43908;53.038;6.666;2022-07-05T02:02:15;11.80;99.90
58096;DHT22;43908;53.038;6.666;2022-07-05T02:04:41;11.80;99.90
58096;DHT22;43908;53.038;6.666;2022-07-05T02:07:08;11.80;99.90
58096;DHT22;43908;53.038;6.666;2022-07-05T02:09:34;11.80;99.90
58096;DHT22;43908;53.038;6.666;2022-07-05T02:12:01;11.80;99.90
58096;DHT22;43908;53.038;6.666;2022-07-05T02:14:26;11.80;99.90
58096;DHT22;43908;53.038;6.666;2022-07-05T02:16:52;11.80;99.90
58096;DHT22;43908;53.038;6.666;2022-07-05T02:19:18;11.80;99.90
58096;DHT22;43908;53.038;6.666;2022-07-05T02:21:43;11.80;99.90
58096;DHT22;43908;53.038;6.666;2022-07-05T02:24:09;11.80;99.90
58096;DHT22;43908;53.038;6.666;2022-07-05T02:26:35;11.70;99.90
58096;DHT22;43908;53.038;6.666;2022-07-05T02:29:02;11.70;99.90
58096;DHT22;43908;53.038;6.666;2022-07-05T02:31:28;11.70;99.90
58096;DHT22;43908;53.038;6.666;2022-07-05T02:33:53;11.60;99.90
58096;DHT22;43908;53.038;6.666;2022-07-05T02:36:19;11.60;99.90
58096;DHT22;43908;53.038;6.666;2022-07-05T02:38:45;11.50;99.90
58096;DHT22;43908;53.038;6.666;2022-07-05T02:41:11;11.50;99.90
58096;DHT22;43908;53.038;6.666;2022-07-05T02:43:38;11.50;99.90
58096;DHT22;43908;53.038;6.666;2022-07-05T02:46:04;11.40;99.90
58096;DHT22;43908;53.038;6.666;2022-07-05T02:48:31;11.40;99.90
58096;DHT22;43908;53.038;6.666;2022-07-05T02:50:57;11.40;99.90
58096;DHT22;43908;53.038;6.666;2022-07-05T02:53:22;11.40;99.90
58096;DHT22;43908;53.038;6.666;2022-07-05T02:55:48;11.40;99.90
58096;DHT22;43908;53.038;6.666;2022-07-05T02:58:14;11.30;99.90
58096;DHT22;43908;53.038;6.666;2022-07-05T03:00:40;11.30;99.90
58096;DHT22;43908;53.038;6.666;2022-07-05T03:03:05;11.30;99.90
58096;DHT22;43908;53.038;6.666;2022-07-05T03:05:31;11.30;99.90
58096;DHT22;43908;53.038;6.666;2022-07-05T03:07:57;11.30;99.90
58096;DHT22;43908;53.038;6.666;2022-07-05T03:10:22;11.30;99.90
58096;DHT22;43908;53.038;6.666;2022-07-05T03:12:48;11.30;99.90
58096;DHT22;43908;53.038;6.666;2022-07-05T03:15:13;11.20;99.90
58096;DHT22;43908;53.038;6.666;2022-07-05T03:17:39;11.30;99.90
58096;DHT22;43908;53.038;6.666;2022-07-05T03:20:05;11.20;99.90
58096;DHT22;43908;53.038;6.666;2022-07-05T03:22:30;11.20;99.90
58096;DHT22;43908;53.038;6.666;2022-07-05T03:24:56;11.20;99.90
58096;DHT22;43908;53.038;6.666;2022-07-05T03:27:21;11.20;99.90
58096;DHT22;43908;53.038;6.666;2022-07-05T03:29:47;11.20;99.90
58096;DHT22;43908;53.038;6.666;2022-07-05T03:32:12;11.20;99.90
58096;DHT22;43908;53.038;6.666;2022-07-05T03:34:38;11.20;99.90
58096;DHT22;43908;53.038;6.666;2022-07-05T03:37:04;11.20;99.90
58096;DHT22;43908;53.038;6.666;2022-07-05T03:39:29;11.20;99.90
58096;DHT22;43908;53.038;6.666;2022-07-05T03:41:55;11.20;99.90
58096;DHT22;43908;53.038;6.666;2022-07-05T03:44:20;11.20;99.90
58096;DHT22;43908;53.038;6.666;2022-07-05T03:46:46;11.20;99.90
58096;DHT22;43908;53.038;6.666;2022-07-05T03:49:12;11.20;99.90
58096;DHT22;43908;53.038;6.666;2022-07-05T03:51:37;11.30;99.90
58096;DHT22;43908;53.038;6.666;2022-07-05T03:54:03;11.30;99.90
58096;DHT22;43908;53.038;6.666;2022-07-05T03:56:29;11.30;99.90
58096;DHT22;43908;53.038;6.666;2022-07-05T03:58:54;11.30;99.90
58096;DHT22;43908;53.038;6.666;2022-07-05T04:01:20;11.30;99.90
58096;DHT22;43908;53.038;6.666;2022-07-05T04:03:46;11.40;99.90
58096;DHT22;43908;53.038;6.666;2022-07-05T04:06:12;11.40;99.90
58096;DHT22;43908;53.038;6.666;2022-07-05T04:08:38;11.40;99.90
58096;DHT22;43908;53.038;6.666;2022-07-05T04:11:04;11.50;99.90
58096;DHT22;43908;53.038;6.666;2022-07-05T04:13:30;11.50;99.90
58096;DHT22;43908;53.038;6.666;2022-07-05T04:15:55;11.60;99.90
58096;DHT22;43908;53.038;6.666;2022-07-05T04:18:21;11.60;99.90
58096;DHT22;43908;53.038;6.666;2022-07-05T04:20:47;11.60;99.90
58096;DHT22;43908;53.038;6.666;2022-07-05T04:23:13;11.60;99.90
58096;DHT22;43908;53.038;6.666;2022-07-05T04:25:38;11.60;99.90
58096;DHT22;43908;53.038;6.666;2022-07-05T04:28:04;11.60;99.90
58096;DHT22;43908;53.038;6.666;2022-07-05T04:30:30;11.70;99.90
58096;DHT22;43908;53.038;6.666;2022-07-05T04:32:56;11.60;99.90
58096;DHT22;43908;53.038;6.666;2022-07-05T04:35:23;11.70;99.90
58096;DHT22;43908;53.038;6.666;2022-07-05T04:37:49;11.80;99.90
58096;DHT22;43908;53.038;6.666;2022-07-05T04:40:15;11.90;99.90
58096;DHT22;43908;53.038;6.666;2022-07-05T04:42:41;12.10;99.90
58096;DHT22;43908;53.038;6.666;2022-07-05T04:45:07;12.20;99.90
58096;DHT22;43908;53.038;6.666;2022-07-05T04:47:33;12.40;99.90
58096;DHT22;43908;53.038;6.666;2022-07-05T04:49:59;12.60;99.90
58096;DHT22;43908;53.038;6.666;2022-07-05T04:52:26;12.70;99.90
58096;DHT22;43908;53.038;6.666;2022-07-05T04:54:52;12.90;99.90
58096;DHT22;43908;53.038;6.666;2022-07-05T04:57:18;12.90;99.90
58096;DHT22;43908;53.038;6.666;2022-07-05T04:59:44;13.10;99.90
58096;DHT22;43908;53.038;6.666;2022-07-05T05:02:09;13.10;99.90
58096;DHT22;43908;53.038;6.666;2022-07-05T05:04:35;13.10;99.90
58096;DHT22;43908;53.038;6.666;2022-07-05T05:07:01;13.10;99.90
58096;DHT22;43908;53.038;6.666;2022-07-05T05:09:27;13.20;99.90
58096;DHT22;43908;53.038;6.666;2022-07-05T05:11:52;13.20;99.90
58096;DHT22;43908;53.038;6.666;2022-07-05T05:14:18;13.30;99.90
58096;DHT22;43908;53.038;6.666;2022-07-05T05:16:43;13.30;99.90
58096;DHT22;43908;53.038;6.666;2022-07-05T05:19:09;13.40;99.90
58096;DHT22;43908;53.038;6.666;2022-07-05T05:21:35;13.50;99.90
58096;DHT22;43908;53.038;6.666;2022-07-05T05:24:00;13.60;99.90
58096;DHT22;43908;53.038;6.666;2022-07-05T05:26:26;13.60;99.90
58096;DHT22;43908;53.038;6.666;2022-07-05T05:28:52;13.70;99.90
58096;DHT22;43908;53.038;6.666;2022-07-05T05:31:17;13.70;99.90
58096;DHT22;43908;53.038;6.666;2022-07-05T05:33:44;13.80;99.90
58096;DHT22;43908;53.038;6.666;2022-07-05T05:36:10;13.80;99.90
58096;DHT22;43908;53.038;6.666;2022-07-05T05:38:36;13.90;99.90
58096;DHT22;43908;53.038;6.666;2022-07-05T05:41:02;14.10;99.90
58096;DHT22;43908;53.038;6.666;2022-07-05T05:43:27;14.20;99.90
58096;DHT22;43908;53.038;6.666;2022-07-05T05:45:53;14.30;99.90
58096;DHT22;43908;53.038;6.666;2022-07-05T05:48:19;14.40;99.90
58096;DHT22;43908;53.038;6.666;2022-07-05T05:50:45;14.50;99.90
58096;DHT22;43908;53.038;6.666;2022-07-05T05:53:11;15.00;99.90
58096;DHT22;43908;53.038;6.666;2022-07-05T05:55:37;16.60;99.90
58096;DHT22;43908;53.038;6.666;2022-07-05T05:58:18;18.50;99.90
58096;DHT22;43908;53.038;6.666;2022-07-05T06:00:45;20.10;99.90
58096;DHT22;43908;53.038;6.666;2022-07-05T06:03:15;21.60;99.90
58096;DHT22;43908;53.038;6.666;2022-07-05T06:10:38;24.80;97.80
58096;DHT22;43908;53.038;6.666;2022-07-05T06:13:06;25.80;96.20
58096;DHT22;43908;53.038;6.666;2022-07-05T06:15:32;26.40;93.90
58096;DHT22;43908;53.038;6.666;2022-07-05T06:17:59;27.00;92.70
58096;DHT22;43908;53.038;6.666;2022-07-05T06:20:26;27.60;91.50
58096;DHT22;43908;53.038;6.666;2022-07-05T06:22:53;27.90;90.60
58096;DHT22;43908;53.038;6.666;2022-07-05T06:25:19;27.90;90.40
58096;DHT22;43908;53.038;6.666;2022-07-05T06:27:47;27.80;87.70
58096;DHT22;43908;53.038;6.666;2022-07-05T06:30:15;28.00;82.10
58096;DHT22;43908;53.038;6.666;2022-07-05T06:32:43;28.40;82.70
58096;DHT22;43908;53.038;6.666;2022-07-05T06:35:10;28.70;82.30
58096;DHT22;43908;53.038;6.666;2022-07-05T06:37:46;28.70;79.10
58096;DHT22;43908;53.038;6.666;2022-07-05T06:40:16;29.10;77.00
58096;DHT22;43908;53.038;6.666;2022-07-05T06:42:42;29.40;75.60
58096;DHT22;43908;53.038;6.666;2022-07-05T06:45:08;29.60;73.30
58096;DHT22;43908;53.038;6.666;2022-07-05T06:47:34;29.80;73.70
58096;DHT22;43908;53.038;6.666;2022-07-05T06:50:00;29.80;72.00
58096;DHT22;43908;53.038;6.666;2022-07-05T06:52:28;30.00;73.00
58096;DHT22;43908;53.038;6.666;2022-07-05T06:54:54;30.30;70.40
58096;DHT22;43908;53.038;6.666;2022-07-05T06:57:23;30.40;68.70
58096;DHT22;43908;53.038;6.666;2022-07-05T06:59:49;30.50;68.90
58096;DHT22;43908;53.038;6.666;2022-07-05T07:04:41;30.60;66.70
58096;DHT22;43908;53.038;6.666;2022-07-05T07:07:13;30.70;66.00
58096;DHT22;43908;53.038;6.666;2022-07-05T07:09:58;30.50;67.10
58096;DHT22;43908;53.038;6.666;2022-07-05T07:12:24;30.60;65.60
58096;DHT22;43908;53.038;6.666;2022-07-05T07:14:49;30.70;65.30
58096;DHT22;43908;53.038;6.666;2022-07-05T07:17:15;30.60;65.00
58096;DHT22;43908;53.038;6.666;2022-07-05T07:19:41;30.70;63.40
58096;DHT22;43908;53.038;6.666;2022-07-05T07:22:06;29.70;63.40
58096;DHT22;43908;53.038;6.666;2022-07-05T07:24:32;29.60;64.50
58096;DHT22;43908;53.038;6.666;2022-07-05T07:26:57;29.60;65.70
58096;DHT22;43908;53.038;6.666;2022-07-05T07:29:30;29.20;63.70
58096;DHT22;43908;53.038;6.666;2022-07-05T07:31:57;29.10;64.80
58096;DHT22;43908;53.038;6.666;2022-07-05T07:34:23;29.10;64.30
58096;DHT22;43908;53.038;6.666;2022-07-05T07:36:49;28.40;63.50
58096;DHT22;43908;53.038;6.666;2022-07-05T07:39:14;28.20;65.30
58096;DHT22;43908;53.038;6.666;2022-07-05T07:41:40;27.10;67.10
58096;DHT22;43908;53.038;6.666;2022-07-05T07:44:06;26.90;66.50
58096;DHT22;43908;53.038;6.666;2022-07-05T07:46:32;27.10;66.70
58096;DHT22;43908;53.038;6.666;2022-07-05T07:48:58;27.90;67.00
58096;DHT22;43908;53.038;6.666;2022-07-05T07:51:24;27.90;64.90
58096;DHT22;43908;53.038;6.666;2022-07-05T07:53:50;26.90;65.50
58096;DHT22;43908;53.038;6.666;2022-07-05T07:56:16;26.50;67.20
58096;DHT22;43908;53.038;6.666;2022-07-05T07:58:42;26.80;68.10
58096;DHT22;43908;53.038;6.666;2022-07-05T08:01:08;26.70;68.50
58096;DHT22;43908;53.038;6.666;2022-07-05T08:03:37;26.50;67.20
58096;DHT22;43908;53.038;6.666;2022-07-05T08:06:03;27.00;67.30
58096;DHT22;43908;53.038;6.666;2022-07-05T08:08:29;27.10;66.00
58096;DHT22;43908;53.038;6.666;2022-07-05T08:10:54;26.20;65.10
58096;DHT22;43908;53.038;6.666;2022-07-05T08:13:20;25.00;67.20
58096;DHT22;43908;53.038;6.666;2022-07-05T08:15:45;24.40;69.70
58096;DHT22;43908;53.038;6.666;2022-07-05T08:18:11;23.70;70.60
58096;DHT22;43908;53.038;6.666;2022-07-05T08:20:55;23.10;72.30
58096;DHT22;43908;53.038;6.666;2022-07-05T08:23:39;22.80;72.50
58096;DHT22;43908;53.038;6.666;2022-07-05T08:26:04;22.40;72.90
58096;DHT22;43908;53.038;6.666;2022-07-05T08:28:30;22.30;74.00
58096;DHT22;43908;53.038;6.666;2022-07-05T08:30:55;22.20;74.60
58096;DHT22;43908;53.038;6.666;2022-07-05T08:33:21;22.30;74.20
58096;DHT22;43908;53.038;6.666;2022-07-05T08:35:47;22.10;74.80
58096;DHT22;43908;53.038;6.666;2022-07-05T08:38:12;22.00;74.90
58096;DHT22;43908;53.038;6.666;2022-07-05T08:40:39;21.90;74.20
58096;DHT22;43908;53.038;6.666;2022-07-05T08:43:10;21.80;76.40
58096;DHT22;43908;53.038;6.666;2022-07-05T08:45:37;21.90;77.20
58096;DHT22;43908;53.038;6.666;2022-07-05T08:48:04;22.10;76.50
58096;DHT22;43908;53.038;6.666;2022-07-05T08:50:32;22.30;75.50
58096;DHT22;43908;53.038;6.666;2022-07-05T08:52:59;22.40;74.90
58096;DHT22;43908;53.038;6.666;2022-07-05T08:55:26;22.40;71.60
58096;DHT22;43908;53.038;6.666;2022-07-05T08:57:52;22.60;74.30
58096;DHT22;43908;53.038;6.666;2022-07-05T09:00:18;22.80;74.10
58096;DHT22;43908;53.038;6.666;2022-07-05T09:02:43;22.90;74.30
58096;DHT22;43908;53.038;6.666;2022-07-05T09:05:12;22.90;74.40
58096;DHT22;43908;53.038;6.666;2022-07-05T09:07:42;22.80;74.20
58096;DHT22;43908;53.038;6.666;2022-07-05T09:10:11;22.70;74.60
58096;DHT22;43908;53.038;6.666;2022-07-05T09:12:37;22.60;74.70
58096;DHT22;43908;53.038;6.666;2022-07-05T09:15:03;22.50;75.30
58096;DHT22;43908;53.038;6.666;2022-07-05T09:17:31;22.30;75.40
58096;DHT22;43908;53.038;6.666;2022-07-05T09:20:14;22.10;76.80
58096;DHT22;43908;53.038;6.666;2022-07-05T09:22:52;22.10;77.00
58096;DHT22;43908;53.038;6.666;2022-07-05T09:25:19;22.10;76.00
58096;DHT22;43908;53.038;6.666;2022-07-05T09:28:14;22.20;75.10
58096;DHT22;43908;53.038;6.666;2022-07-05T09:30:40;22.10;76.30
58096;DHT22;43908;53.038;6.666;2022-07-05T09:33:15;21.90;76.80
58096;DHT22;43908;53.038;6.666;2022-07-05T09:35:42;21.80;76.00
58096;DHT22;43908;53.038;6.666;2022-07-05T09:38:22;21.80;77.40
58096;DHT22;43908;53.038;6.666;2022-07-05T09:40:54;21.70;77.10
58096;DHT22;43908;53.038;6.666;2022-07-05T09:43:25;21.60;77.80
58096;DHT22;43908;53.038;6.666;2022-07-05T09:46:01;21.60;77.90
58096;DHT22;43908;53.038;6.666;2022-07-05T09:48:29;21.80;76.70
58096;DHT22;43908;53.038;6.666;2022-07-05T09:51:09;21.70;77.60
58096;DHT22;43908;53.038;6.666;2022-07-05T09:56:14;21.60;77.10
58096;DHT22;43908;53.038;6.666;2022-07-05T09:58:40;21.40;76.40
58096;DHT22;43908;53.038;6.666;2022-07-05T10:03:54;21.80;77.90
58096;DHT22;43908;53.038;6.666;2022-07-05T10:06:25;21.90;77.00
58096;DHT22;43908;53.038;6.666;2022-07-05T10:08:52;21.90;76.80
58096;DHT22;43908;53.038;6.666;2022-07-05T10:11:22;21.70;75.20
58096;DHT22;43908;53.038;6.666;2022-07-05T10:13:50;21.70;77.70
58096;DHT22;43908;53.038;6.666;2022-07-05T10:16:17;21.60;77.70
58096;DHT22;43908;53.038;6.666;2022-07-05T10:18:47;21.60;77.90
58096;DHT22;43908;53.038;6.666;2022-07-05T10:21:16;21.60;77.10
58096;DHT22;43908;53.038;6.666;2022-07-05T10:23:47;21.50;77.40
58096;DHT22;43908;53.038;6.666;2022-07-05T10:26:15;21.30;76.60
58096;DHT22;43908;53.038;6.666;2022-07-05T10:28:51;21.60;78.20
58096;DHT22;43908;53.038;6.666;2022-07-05T10:31:18;21.50;77.30
58096;DHT22;43908;53.038;6.666;2022-07-05T10:33:45;21.60;78.50
58096;DHT22;43908;53.038;6.666;2022-07-05T10:36:12;21.70;78.00
58096;DHT22;43908;53.038;6.666;2022-07-05T10:38:39;21.80;77.90
58096;DHT22;43908;53.038;6.666;2022-07-05T10:41:08;21.90;77.90
58096;DHT22;43908;53.038;6.666;2022-07-05T10:43:34;21.80;78.70
58096;DHT22;43908;53.038;6.666;2022-07-05T10:46:00;21.80;78.30
58096;DHT22;43908;53.038;6.666;2022-07-05T10:48:27;21.80;78.20
58096;DHT22;43908;53.038;6.666;2022-07-05T10:50:57;21.80;79.30
58096;DHT22;43908;53.038;6.666;2022-07-05T10:54:00;21.90;78.20
58096;DHT22;43908;53.038;6.666;2022-07-05T10:56:15;22.30;78.20
58096;DHT22;43908;53.038;6.666;2022-07-05T10:58:42;22.50;78.00
58096;DHT22;43908;53.038;6.666;2022-07-05T11:03:47;22.80;74.50
58096;DHT22;43908;53.038;6.666;2022-07-05T11:06:23;22.70;75.40
58096;DHT22;43908;53.038;6.666;2022-07-05T11:11:29;22.60;75.60
58096;DHT22;43908;53.038;6.666;2022-07-05T11:13:55;22.70;76.80
58096;DHT22;43908;53.038;6.666;2022-07-05T11:19:12;22.80;74.20
58096;DHT22;43908;53.038;6.666;2022-07-05T11:21:39;22.70;75.00
58096;DHT22;43908;53.038;6.666;2022-07-05T11:24:26;22.80;75.50
58096;DHT22;43908;53.038;6.666;2022-07-05T11:26:55;22.90;75.70
58096;DHT22;43908;53.038;6.666;2022-07-05T11:29:41;22.50;71.70
58096;DHT22;43908;53.038;6.666;2022-07-05T11:32:17;22.20;74.20
58096;DHT22;43908;53.038;6.666;2022-07-05T11:34:53;22.20;74.10
58096;DHT22;43908;53.038;6.666;2022-07-05T11:42:37;22.70;75.30
58096;DHT22;43908;53.038;6.666;2022-07-05T11:45:14;22.60;74.30
58096;DHT22;43908;53.038;6.666;2022-07-05T11:47:40;22.50;74.70
58096;DHT22;43908;53.038;6.666;2022-07-05T11:50:07;22.20;72.70
58096;DHT22;43908;53.038;6.666;2022-07-05T11:52:35;21.90;74.80
58096;DHT22;43908;53.038;6.666;2022-07-05T11:55:03;21.90;76.40
58096;DHT22;43908;53.038;6.666;2022-07-05T11:57:30;21.90;76.70
58096;DHT22;43908;53.038;6.666;2022-07-05T11:59:55;22.10;76.90
58096;DHT22;43908;53.038;6.666;2022-07-05T12:02:21;22.30;76.10
58096;DHT22;43908;53.038;6.666;2022-07-05T12:07:33;22.70;75.30
58096;DHT22;43908;53.038;6.666;2022-07-05T12:10:00;22.70;74.80
58096;DHT22;43908;53.038;6.666;2022-07-05T12:12:45;22.80;75.70
58096;DHT22;43908;53.038;6.666;2022-07-05T12:15:15;22.90;74.70
58096;DHT22;43908;53.038;6.666;2022-07-05T12:17:42;22.80;72.10
58096;DHT22;43908;53.038;6.666;2022-07-05T12:20:10;22.70;73.20
58096;DHT22;43908;53.038;6.666;2022-07-05T12:22:44;22.60;74.00
58096;DHT22;43908;53.038;6.666;2022-07-05T12:25:15;22.70;74.80
58096;DHT22;43908;53.038;6.666;2022-07-05T12:27:42;22.70;69.90
58096;DHT22;43908;53.038;6.666;2022-07-05T12:30:11;22.90;74.20
58096;DHT22;43908;53.038;6.666;2022-07-05T12:32:57;23.10;71.80
58096;DHT22;43908;53.038;6.666;2022-07-05T12:35:34;23.20;75.10
58096;DHT22;43908;53.038;6.666;2022-07-05T12:38:16;22.80;75.60
58096;DHT22;43908;53.038;6.666;2022-07-05T12:40:46;22.40;77.40
58096;DHT22;43908;53.038;6.666;2022-07-05T12:43:16;22.30;79.00
58096;DHT22;43908;53.038;6.666;2022-07-05T12:48:35;22.00;79.60
58096;DHT22;43908;53.038;6.666;2022-07-05T12:51:02;22.10;79.70
58096;DHT22;43908;53.038;6.666;2022-07-05T12:53:28;22.00;80.70
58096;DHT22;43908;53.038;6.666;2022-07-05T12:56:13;22.10;80.00
58096;DHT22;43908;53.038;6.666;2022-07-05T12:59:03;22.10;80.60
58096;DHT22;43908;53.038;6.666;2022-07-05T13:01:29;22.30;80.30
58096;DHT22;43908;53.038;6.666;2022-07-05T13:06:45;22.30;79.80
58096;DHT22;43908;53.038;6.666;2022-07-05T13:09:13;22.20;79.60
58096;DHT22;43908;53.038;6.666;2022-07-05T13:11:39;21.50;78.50
58096;DHT22;43908;53.038;6.666;2022-07-05T13:14:05;21.60;80.10
58096;DHT22;43908;53.038;6.666;2022-07-05T13:16:31;21.50;80.70
58096;DHT22;43908;53.038;6.666;2022-07-05T13:19:10;21.80;80.90
58096;DHT22;43908;53.038;6.666;2022-07-05T13:21:36;22.00;76.70
58096;DHT22;43908;53.038;6.666;2022-07-05T13:24:02;22.00;73.80
58096;DHT22;43908;53.038;6.666;2022-07-05T13:26:28;22.20;77.50
58096;DHT22;43908;53.038;6.666;2022-07-05T13:28:53;22.60;79.60
58096;DHT22;43908;53.038;6.666;2022-07-05T13:31:19;22.40;79.20
58096;DHT22;43908;53.038;6.666;2022-07-05T13:33:45;22.40;78.70
58096;DHT22;43908;53.038;6.666;2022-07-05T13:36:11;22.20;79.40
58096;DHT22;43908;53.038;6.666;2022-07-05T13:38:36;21.50;80.00
58096;DHT22;43908;53.038;6.666;2022-07-05T13:41:02;21.30;80.90
58096;DHT22;43908;53.038;6.666;2022-07-05T13:43:28;21.50;80.50
58096;DHT22;43908;53.038;6.666;2022-07-05T13:45:53;21.60;81.00
58096;DHT22;43908;53.038;6.666;2022-07-05T13:48:19;21.80;81.70
58096;DHT22;43908;53.038;6.666;2022-07-05T13:50:44;21.90;80.40
58096;DHT22;43908;53.038;6.666;2022-07-05T13:53:10;22.10;79.60
58096;DHT22;43908;53.038;6.666;2022-07-05T13:55:35;22.30;79.90
58096;DHT22;43908;53.038;6.666;2022-07-05T13:58:01;22.30;77.40
58096;DHT22;43908;53.038;6.666;2022-07-05T14:00:26;22.50;76.60
58096;DHT22;43908;53.038;6.666;2022-07-05T14:02:52;22.80;79.10
58096;DHT22;43908;53.038;6.666;2022-07-05T14:05:18;22.00;76.90
58096;DHT22;43908;53.038;6.666;2022-07-05T14:07:46;22.20;78.60
58096;DHT22;43908;53.038;6.666;2022-07-05T14:10:12;22.20;77.50
58096;DHT22;43908;53.038;6.666;2022-07-05T14:12:38;22.30;77.80
58096;DHT22;43908;53.038;6.666;2022-07-05T14:15:04;22.40;76.50
58096;DHT22;43908;53.038;6.666;2022-07-05T14:17:29;22.00;75.40
58096;DHT22;43908;53.038;6.666;2022-07-05T14:19:56;22.10;77.90
58096;DHT22;43908;53.038;6.666;2022-07-05T14:22:21;21.80;74.80
58096;DHT22;43908;53.038;6.666;2022-07-05T14:24:47;21.90;78.50
58096;DHT22;43908;53.038;6.666;2022-07-05T14:27:13;21.70;78.40
58096;DHT22;43908;53.038;6.666;2022-07-05T14:29:38;21.50;76.30
58096;DHT22;43908;53.038;6.666;2022-07-05T14:32:04;21.70;75.40
58096;DHT22;43908;53.038;6.666;2022-07-05T14:34:30;21.90;78.10
58096;DHT22;43908;53.038;6.666;2022-07-05T14:36:56;22.20;75.40
58096;DHT22;43908;53.038;6.666;2022-07-05T14:39:21;22.30;77.10
58096;DHT22;43908;53.038;6.666;2022-07-05T14:41:47;22.50;78.20
58096;DHT22;43908;53.038;6.666;2022-07-05T14:44:13;22.40;75.60
58096;DHT22;43908;53.038;6.666;2022-07-05T14:46:40;22.40;73.90
58096;DHT22;43908;53.038;6.666;2022-07-05T14:49:06;22.50;76.30
58096;DHT22;43908;53.038;6.666;2022-07-05T14:51:31;22.60;77.70
58096;DHT22;43908;53.038;6.666;2022-07-05T14:53:57;22.30;72.80
58096;DHT22;43908;53.038;6.666;2022-07-05T14:56:22;22.50;74.00
58096;DHT22;43908;53.038;6.666;2022-07-05T14:58:48;22.50;75.40
58096;DHT22;43908;53.038;6.666;2022-07-05T15:01:14;22.50;73.60
58096;DHT22;43908;53.038;6.666;2022-07-05T15:03:40;22.20;70.50
58096;DHT22;43908;53.038;6.666;2022-07-05T15:06:06;22.20;73.40
58096;DHT22;43908;53.038;6.666;2022-07-05T15:08:32;21.90;76.70
58096;DHT22;43908;53.038;6.666;2022-07-05T15:10:57;22.10;74.20
58096;DHT22;43908;53.038;6.666;2022-07-05T15:13:23;22.00;72.90
58096;DHT22;43908;53.038;6.666;2022-07-05T15:15:51;22.30;75.60
58096;DHT22;43908;53.038;6.666;2022-07-05T15:18:17;22.10;76.00
58096;DHT22;43908;53.038;6.666;2022-07-05T15:20:42;22.20;75.40
58096;DHT22;43908;53.038;6.666;2022-07-05T15:23:08;22.40;76.10
58096;DHT22;43908;53.038;6.666;2022-07-05T15:25:34;22.50;76.00
58096;DHT22;43908;53.038;6.666;2022-07-05T15:27:59;22.30;72.20
58096;DHT22;43908;53.038;6.666;2022-07-05T15:30:25;22.50;74.70
58096;DHT22;43908;53.038;6.666;2022-07-05T15:32:50;22.80;75.60
58096;DHT22;43908;53.038;6.666;2022-07-05T15:35:16;22.80;74.60
58096;DHT22;43908;53.038;6.666;2022-07-05T15:37:43;22.40;73.50
58096;DHT22;43908;53.038;6.666;2022-07-05T15:40:10;22.40;75.70
58096;DHT22;43908;53.038;6.666;2022-07-05T15:42:35;22.40;75.60
58096;DHT22;43908;53.038;6.666;2022-07-05T15:45:01;22.70;76.00
58096;DHT22;43908;53.038;6.666;2022-07-05T15:47:27;22.80;74.00
58096;DHT22;43908;53.038;6.666;2022-07-05T15:49:53;22.80;75.80
58096;DHT22;43908;53.038;6.666;2022-07-05T15:52:20;22.50;74.90
58096;DHT22;43908;53.038;6.666;2022-07-05T15:54:45;22.40;73.20
58096;DHT22;43908;53.038;6.666;2022-07-05T15:57:11;21.70;74.80
58096;DHT22;43908;53.038;6.666;2022-07-05T15:59:37;21.70;75.90
58096;DHT22;43908;53.038;6.666;2022-07-05T16:02:03;22.00;78.40
58096;DHT22;43908;53.038;6.666;2022-07-05T16:04:29;22.00;78.50
58096;DHT22;43908;53.038;6.666;2022-07-05T16:06:57;22.00;77.10
58096;DHT22;43908;53.038;6.666;2022-07-05T16:09:24;21.30;75.70